BEL146 FVFA-FVRG
Flight info
| Callsign | BEL146 |
|---|---|
| Flight time | 0h 56m |
| Altitude | 27000 |
| Route | OKDUV UJ77 VHA |
| Aircraft | RJ1H/M-SDFGIRWY/LB1 |
Departure
| Time | 2026-05-04 07:51 |
|---|---|
| Airport | Victoria Falls International Airport (FVFA) |
Arrival
| Time | 2026-05-04 08:47 |
|---|---|
| Airport | Robert Gabriel Mugabe International Airport (FVRG) |
| Time | Latitude | Longitude | Altitude | Speed | Heading |
|---|---|---|---|---|---|
| 2026-05-04 07:15 | -18.09726 | 25.85155 | 3519 ft | 0 kts | 14° |
| 2026-05-04 07:39 | -18.09743 | 25.85150 | 3516 ft | 4 kts | 14° |
| 2026-05-04 07:39 | -18.09770 | 25.85143 | 3517 ft | 4 kts | 14° |
| 2026-05-04 07:39 | -18.09791 | 25.85138 | 3513 ft | 2 kts | 350° |
| 2026-05-04 07:40 | -18.09808 | 25.85145 | 3511 ft | 2 kts | 323° |
| 2026-05-04 07:40 | -18.09820 | 25.85158 | 3513 ft | 2 kts | 295° |
| 2026-05-04 07:40 | -18.09825 | 25.85177 | 3511 ft | 2 kts | 284° |
| 2026-05-04 07:40 | -18.09826 | 25.85182 | 3511 ft | 0 kts | 284° |
| 2026-05-04 07:43 | -18.09826 | 25.85181 | 3511 ft | 0 kts | 284° |
| 2026-05-04 07:43 | -18.09825 | 25.85177 | 3511 ft | 1 kts | 284° |
| 2026-05-04 07:43 | -18.09822 | 25.85164 | 3512 ft | 3 kts | 284° |
| 2026-05-04 07:43 | -18.09814 | 25.85134 | 3519 ft | 5 kts | 286° |
| 2026-05-04 07:44 | -18.09800 | 25.85087 | 3510 ft | 8 kts | 286° |
| 2026-05-04 07:44 | -18.09792 | 25.85022 | 3512 ft | 10 kts | 255° |
| 2026-05-04 07:44 | -18.09855 | 25.84978 | 3511 ft | 13 kts | 198° |
| 2026-05-04 07:44 | -18.09944 | 25.84936 | 3512 ft | 16 kts | 231° |
| 2026-05-04 07:45 | -18.09928 | 25.84819 | 3515 ft | 18 kts | 289° |
| 2026-05-04 07:45 | -18.09883 | 25.84691 | 3515 ft | 19 kts | 291° |
| 2026-05-04 07:45 | -18.09832 | 25.84553 | 3509 ft | 21 kts | 291° |
| 2026-05-04 07:45 | -18.09781 | 25.84403 | 3514 ft | 22 kts | 290° |
| 2026-05-04 07:46 | -18.09727 | 25.84245 | 3513 ft | 24 kts | 290° |
| 2026-05-04 07:46 | -18.09671 | 25.84081 | 3509 ft | 25 kts | 290° |
| 2026-05-04 07:46 | -18.09611 | 25.83909 | 3514 ft | 26 kts | 290° |
| 2026-05-04 07:46 | -18.09547 | 25.83728 | 3511 ft | 27 kts | 290° |
| 2026-05-04 07:47 | -18.09482 | 25.83539 | 3513 ft | 28 kts | 290° |
| 2026-05-04 07:47 | -18.09415 | 25.83345 | 3511 ft | 29 kts | 290° |
| 2026-05-04 07:47 | -18.09345 | 25.83143 | 3512 ft | 30 kts | 290° |
| 2026-05-04 07:49 | -18.08983 | 25.81856 | 3512 ft | 20 kts | 201° |
| 2026-05-04 07:49 | -18.09100 | 25.81876 | 3512 ft | 18 kts | 119° |
| 2026-05-04 07:49 | -18.09141 | 25.81992 | 3513 ft | 19 kts | 109° |
| 2026-05-04 07:50 | -18.09223 | 25.82228 | 3510 ft | 59 kts | 110° |
| 2026-05-04 07:50 | -18.09425 | 25.82807 | 3509 ft | 107 kts | 110° |
| 2026-05-04 07:50 | -18.09720 | 25.83656 | 3511 ft | 141 kts | 110° |
| 2026-05-04 07:50 | -18.10085 | 25.84654 | 3714 ft | 151 kts | 109° |
| 2026-05-04 07:51 | -18.10495 | 25.85750 | 3919 ft | 170 kts | 108° |
| 2026-05-04 07:51 | -18.10905 | 25.86940 | 4317 ft | 173 kts | 105° |
| 2026-05-04 07:51 | -18.11157 | 25.88145 | 4816 ft | 166 kts | 89° |
| 2026-05-04 07:51 | -18.11112 | 25.89371 | 5081 ft | 171 kts | 82° |
| 2026-05-04 07:52 | -18.10925 | 25.90615 | 5384 ft | 171 kts | 75° |
| 2026-05-04 07:52 | -18.10663 | 25.91821 | 5731 ft | 171 kts | 76° |
| 2026-05-04 07:52 | -18.10415 | 25.93070 | 5837 ft | 182 kts | 77° |
| 2026-05-04 07:52 | -18.10226 | 25.94383 | 6103 ft | 180 kts | 82° |
| 2026-05-04 07:53 | -18.10163 | 25.95683 | 6454 ft | 178 kts | 84° |
| 2026-05-04 07:54 | -18.09395 | 26.05505 | 7698 ft | 215 kts | 82° |
| 2026-05-04 07:55 | -18.09239 | 26.07149 | 7709 ft | 237 kts | 79° |
| 2026-05-04 07:55 | -18.08962 | 26.08906 | 7758 ft | 256 kts | 77° |
| 2026-05-04 07:55 | -18.08652 | 26.10815 | 7796 ft | 273 kts | 79° |
| 2026-05-04 07:55 | -18.08403 | 26.12845 | 7866 ft | 285 kts | 82° |
| 2026-05-04 07:56 | -18.08220 | 26.14934 | 8170 ft | 289 kts | 83° |
| 2026-05-04 07:56 | -18.08133 | 26.16338 | 8400 ft | 290 kts | 84° |
| 2026-05-04 07:56 | -18.08003 | 26.19152 | 8845 ft | 292 kts | 85° |
| 2026-05-04 07:56 | -18.07927 | 26.21295 | 9185 ft | 295 kts | 85° |
| 2026-05-04 07:57 | -18.07863 | 26.23458 | 9508 ft | 297 kts | 86° |
| 2026-05-04 07:57 | -18.07798 | 26.25640 | 9854 ft | 299 kts | 86° |
| 2026-05-04 07:57 | -18.07759 | 26.27092 | 10073 ft | 300 kts | 86° |
| 2026-05-04 07:57 | -18.07686 | 26.29303 | 10408 ft | 302 kts | 85° |
| 2026-05-04 07:58 | -18.07570 | 26.32240 | 10898 ft | 304 kts | 85° |
| 2026-05-04 07:58 | -18.07521 | 26.33748 | 11149 ft | 306 kts | 86° |
| 2026-05-04 07:58 | -18.07452 | 26.35962 | 11533 ft | 307 kts | 85° |
| 2026-05-04 07:58 | -18.07365 | 26.38211 | 11891 ft | 309 kts | 85° |
| 2026-05-04 07:59 | -18.07293 | 26.40479 | 12280 ft | 310 kts | 85° |
| 2026-05-04 07:59 | -18.07209 | 26.42755 | 12643 ft | 313 kts | 85° |
| 2026-05-04 07:59 | -18.07126 | 26.45050 | 13010 ft | 315 kts | 86° |
| 2026-05-04 07:59 | -18.07052 | 26.47359 | 13400 ft | 316 kts | 85° |
| 2026-05-04 08:00 | -18.06966 | 26.49676 | 13794 ft | 318 kts | 85° |
| 2026-05-04 08:00 | -18.06878 | 26.52005 | 14166 ft | 320 kts | 85° |
| 2026-05-04 08:00 | -18.06792 | 26.54320 | 14512 ft | 321 kts | 85° |
| 2026-05-04 08:02 | -18.06186 | 26.70986 | 17060 ft | 331 kts | 86° |
| 2026-05-04 08:02 | -18.06099 | 26.73413 | 17390 ft | 333 kts | 86° |
| 2026-05-04 08:02 | -18.06014 | 26.75848 | 17723 ft | 334 kts | 86° |
| 2026-05-04 08:03 | -18.05930 | 26.78286 | 18043 ft | 335 kts | 86° |
| 2026-05-04 08:03 | -18.05845 | 26.80738 | 18360 ft | 336 kts | 86° |
| 2026-05-04 08:03 | -18.05766 | 26.83197 | 18628 ft | 337 kts | 86° |
| 2026-05-04 08:03 | -18.05686 | 26.85671 | 18845 ft | 340 kts | 86° |
| 2026-05-04 08:04 | -18.05601 | 26.88162 | 19071 ft | 342 kts | 86° |
| 2026-05-04 08:04 | -18.05512 | 26.90669 | 19295 ft | 344 kts | 86° |
| 2026-05-04 08:04 | -18.05420 | 26.93193 | 19561 ft | 347 kts | 86° |
| 2026-05-04 08:04 | -18.05322 | 26.95745 | 19835 ft | 349 kts | 86° |
| 2026-05-04 08:05 | -18.05224 | 26.98273 | 20119 ft | 351 kts | 86° |
| 2026-05-04 08:05 | -18.05124 | 27.00846 | 20404 ft | 354 kts | 86° |
| 2026-05-04 08:05 | -18.05022 | 27.03441 | 20687 ft | 356 kts | 86° |
| 2026-05-04 08:05 | -18.04918 | 27.06056 | 20965 ft | 359 kts | 86° |
| 2026-05-04 08:06 | -18.04811 | 27.08682 | 21241 ft | 361 kts | 86° |
| 2026-05-04 08:06 | -18.04698 | 27.11339 | 21486 ft | 365 kts | 86° |
| 2026-05-04 08:06 | -18.04581 | 27.13981 | 21727 ft | 367 kts | 86° |
| 2026-05-04 08:06 | -18.04466 | 27.16679 | 21984 ft | 370 kts | 87° |
| 2026-05-04 08:08 | -18.03699 | 27.36095 | 23633 ft | 389 kts | 88° |
| 2026-05-04 08:08 | -18.03591 | 27.38951 | 23845 ft | 392 kts | 88° |
| 2026-05-04 08:10 | -18.02595 | 27.62143 | 25640 ft | 399 kts | 87° |
| 2026-05-04 08:11 | -18.02462 | 27.65060 | 25886 ft | 399 kts | 87° |
| 2026-05-04 08:11 | -18.02251 | 27.70882 | 26378 ft | 399 kts | 89° |
| 2026-05-04 08:11 | -18.02235 | 27.73763 | 26614 ft | 399 kts | 89° |
| 2026-05-04 08:12 | -18.02238 | 27.76677 | 26850 ft | 399 kts | 90° |
| 2026-05-04 08:12 | -18.02249 | 27.79585 | 27048 ft | 398 kts | 89° |
| 2026-05-04 08:12 | -18.02240 | 27.82505 | 27139 ft | 402 kts | 89° |
| 2026-05-04 08:12 | -18.02225 | 27.85465 | 27166 ft | 408 kts | 89° |
| 2026-05-04 08:13 | -18.02207 | 27.88476 | 27177 ft | 414 kts | 89° |
| 2026-05-04 08:13 | -18.02186 | 27.91534 | 27182 ft | 421 kts | 89° |
| 2026-05-04 08:13 | -18.02164 | 27.94629 | 27186 ft | 426 kts | 89° |
| 2026-05-04 08:13 | -18.02142 | 27.97765 | 27188 ft | 430 kts | 89° |
| 2026-05-04 08:14 | -18.02118 | 28.00919 | 27188 ft | 431 kts | 89° |
| 2026-05-04 08:14 | -18.02095 | 28.04070 | 27183 ft | 431 kts | 89° |
| 2026-05-04 08:14 | -18.02071 | 28.07177 | 27178 ft | 431 kts | 89° |
| 2026-05-04 08:16 | -18.01894 | 28.29251 | 27176 ft | 433 kts | 89° |
| 2026-05-04 08:16 | -18.01868 | 28.32426 | 27179 ft | 433 kts | 89° |
| 2026-05-04 08:16 | -18.01842 | 28.35588 | 27177 ft | 433 kts | 89° |
| 2026-05-04 08:17 | -18.01815 | 28.38751 | 27182 ft | 433 kts | 89° |
| 2026-05-04 08:17 | -18.01789 | 28.41914 | 27184 ft | 433 kts | 89° |
| 2026-05-04 08:17 | -18.01740 | 28.45039 | 27179 ft | 434 kts | 89° |
| 2026-05-04 08:17 | -18.01702 | 28.48205 | 27185 ft | 433 kts | 89° |
| 2026-05-04 08:19 | -18.01094 | 28.70247 | 27192 ft | 430 kts | 88° |
| 2026-05-04 08:19 | -18.00999 | 28.73392 | 27193 ft | 430 kts | 88° |
| 2026-05-04 08:20 | -18.00898 | 28.76536 | 27193 ft | 429 kts | 87° |
| 2026-05-04 08:20 | -18.00773 | 28.79670 | 27197 ft | 430 kts | 87° |
| 2026-05-04 08:20 | -18.00663 | 28.82811 | 27198 ft | 431 kts | 88° |
| 2026-05-04 08:20 | -18.00566 | 28.85915 | 27202 ft | 431 kts | 88° |
| 2026-05-04 08:21 | -18.00452 | 28.89058 | 27205 ft | 430 kts | 87° |
| 2026-05-04 08:21 | -18.00330 | 28.92196 | 27207 ft | 430 kts | 88° |
| 2026-05-04 08:21 | -18.00230 | 28.95338 | 27206 ft | 429 kts | 88° |
| 2026-05-04 08:21 | -18.00120 | 28.98468 | 27207 ft | 429 kts | 87° |
| 2026-05-04 08:22 | -17.99994 | 29.01603 | 27205 ft | 430 kts | 87° |
| 2026-05-04 08:22 | -17.99892 | 29.04732 | 27208 ft | 430 kts | 88° |
| 2026-05-04 08:24 | -17.99091 | 29.26712 | 26773 ft | 433 kts | 87° |
| 2026-05-04 08:24 | -17.98963 | 29.29871 | 26418 ft | 431 kts | 87° |
| 2026-05-04 08:24 | -17.98847 | 29.32963 | 26073 ft | 430 kts | 88° |
| 2026-05-04 08:24 | -17.98740 | 29.36111 | 25736 ft | 431 kts | 88° |
| 2026-05-04 08:25 | -17.98634 | 29.39262 | 25401 ft | 431 kts | 88° |
| 2026-05-04 08:25 | -17.98509 | 29.42411 | 25066 ft | 430 kts | 87° |
| 2026-05-04 08:25 | -17.98383 | 29.45550 | 24740 ft | 430 kts | 88° |
| 2026-05-04 08:25 | -17.98266 | 29.48689 | 24425 ft | 430 kts | 88° |
| 2026-05-04 08:26 | -17.98149 | 29.51798 | 24106 ft | 430 kts | 88° |
| 2026-05-04 08:27 | -17.97300 | 29.73331 | 21521 ft | 411 kts | 86° |
| 2026-05-04 08:28 | -17.97171 | 29.76321 | 21163 ft | 408 kts | 85° |
| 2026-05-04 08:28 | -17.97051 | 29.79263 | 20810 ft | 405 kts | 85° |
| 2026-05-04 08:28 | -17.96944 | 29.82212 | 20460 ft | 403 kts | 85° |
| 2026-05-04 08:28 | -17.96828 | 29.85138 | 20115 ft | 398 kts | 85° |
| 2026-05-04 08:29 | -17.96710 | 29.87990 | 19772 ft | 384 kts | 85° |
| 2026-05-04 08:29 | -17.96802 | 29.90760 | 19430 ft | 376 kts | 96° |
| 2026-05-04 08:29 | -17.97342 | 29.93431 | 19088 ft | 370 kts | 99° |
| 2026-05-04 08:31 | -18.01647 | 30.11282 | 16564 ft | 352 kts | 101° |
| 2026-05-04 08:33 | -18.05524 | 30.27772 | 14487 ft | 314 kts | 101° |
| 2026-05-04 08:33 | -18.06029 | 30.29972 | 14227 ft | 313 kts | 101° |
| 2026-05-04 08:35 | -18.09385 | 30.45237 | 12215 ft | 299 kts | 101° |
| 2026-05-04 08:35 | -18.09835 | 30.47367 | 11943 ft | 295 kts | 101° |
| 2026-05-04 08:35 | -18.10266 | 30.49452 | 11639 ft | 289 kts | 101° |
| 2026-05-04 08:35 | -18.10680 | 30.51478 | 11370 ft | 284 kts | 101° |
| 2026-05-04 08:37 | -18.12917 | 30.62989 | 9965 ft | 258 kts | 100° |
| 2026-05-04 08:37 | -18.13256 | 30.64840 | 9729 ft | 257 kts | 100° |
| 2026-05-04 08:37 | -18.13596 | 30.66688 | 9501 ft | 256 kts | 100° |
| 2026-05-04 08:38 | -18.13937 | 30.68520 | 9268 ft | 254 kts | 100° |
| 2026-05-04 08:38 | -18.14274 | 30.70336 | 9027 ft | 252 kts | 100° |
| 2026-05-04 08:38 | -18.14610 | 30.72144 | 8806 ft | 251 kts | 100° |
| 2026-05-04 08:40 | -18.16926 | 30.84543 | 8018 ft | 242 kts | 97° |
| 2026-05-04 08:40 | -18.16755 | 30.86269 | 8012 ft | 240 kts | 63° |
| 2026-05-04 08:40 | -18.15668 | 30.87557 | 8014 ft | 241 kts | 40° |
| 2026-05-04 08:41 | -18.14357 | 30.88666 | 8012 ft | 242 kts | 40° |
| 2026-05-04 08:41 | -18.13048 | 30.89772 | 8011 ft | 236 kts | 39° |
| 2026-05-04 08:41 | -18.11786 | 30.90815 | 7961 ft | 228 kts | 39° |
| 2026-05-04 08:41 | -18.10541 | 30.91842 | 7935 ft | 225 kts | 39° |
| 2026-05-04 08:42 | -18.09297 | 30.92841 | 7925 ft | 226 kts | 38° |
| 2026-05-04 08:42 | -18.08044 | 30.93839 | 7863 ft | 225 kts | 39° |
| 2026-05-04 08:42 | -18.06827 | 30.94851 | 7696 ft | 223 kts | 41° |
| 2026-05-04 08:42 | -18.05659 | 30.95940 | 7443 ft | 221 kts | 44° |
| 2026-05-04 08:43 | -18.04592 | 30.97005 | 7386 ft | 200 kts | 45° |
| 2026-05-04 08:43 | -18.03956 | 30.97679 | 7312 ft | 195 kts | 47° |
| 2026-05-04 08:43 | -18.02698 | 30.99054 | 7099 ft | 194 kts | 48° |
| 2026-05-04 08:43 | -18.01779 | 31.00102 | 7020 ft | 193 kts | 48° |
| 2026-05-04 08:44 | -18.00902 | 31.01102 | 6748 ft | 176 kts | 48° |
| 2026-05-04 08:44 | -18.00357 | 31.01724 | 6590 ft | 174 kts | 47° |
| 2026-05-04 08:46 | -17.95495 | 31.06873 | 5135 ft | 130 kts | 46° |
| 2026-05-04 08:46 | -17.94855 | 31.07543 | 4973 ft | 126 kts | 46° |
| 2026-05-04 08:46 | -17.94262 | 31.08168 | 4913 ft | 112 kts | 46° |
| 2026-05-04 08:46 | -17.93787 | 31.08663 | 4913 ft | 85 kts | 45° |
| 2026-05-04 08:47 | -17.93410 | 31.09056 | 4914 ft | 69 kts | 44° |
| 2026-05-04 08:47 | -17.93097 | 31.09383 | 4914 ft | 59 kts | 46° |
| 2026-05-04 08:47 | -17.92826 | 31.09659 | 4914 ft | 51 kts | 45° |
| 2026-05-04 08:47 | -17.92592 | 31.09908 | 4915 ft | 44 kts | 45° |
| 2026-05-04 08:48 | -17.92428 | 31.10073 | 4913 ft | 25 kts | 26° |
| 2026-05-04 08:48 | -17.92296 | 31.09990 | 4913 ft | 23 kts | 314° |
| 2026-05-04 08:48 | -17.92193 | 31.09869 | 4913 ft | 21 kts | 312° |
| 2026-05-04 08:48 | -17.92095 | 31.09767 | 4912 ft | 19 kts | 314° |
| 2026-05-04 08:49 | -17.92043 | 31.09729 | 4912 ft | 6 kts | 29° |
| 2026-05-04 08:50 | -17.91991 | 31.09781 | 4914 ft | 0 kts | 45° |